sensor_id;sensor_type;location;lat;lon;timestamp;P1;durP1;ratioP1;P2;durP2;ratioP2
19199;SDS011;9732;52.498;5.408;2022-08-19T00:00:34;10.35;;;6.30;;
19199;SDS011;9732;52.498;5.408;2022-08-19T00:03:01;10.20;;;6.72;;
19199;SDS011;9732;52.498;5.408;2022-08-19T00:05:28;10.70;;;6.28;;
19199;SDS011;9732;52.498;5.408;2022-08-19T00:07:54;10.15;;;6.55;;
19199;SDS011;9732;52.498;5.408;2022-08-19T00:10:22;9.85;;;6.40;;
19199;SDS011;9732;52.498;5.408;2022-08-19T00:12:49;11.05;;;6.20;;
19199;SDS011;9732;52.498;5.408;2022-08-19T00:15:17;9.68;;;6.32;;
19199;SDS011;9732;52.498;5.408;2022-08-19T00:17:46;10.90;;;6.70;;
19199;SDS011;9732;52.498;5.408;2022-08-19T00:20:13;9.60;;;6.85;;
19199;SDS011;9732;52.498;5.408;2022-08-19T00:22:42;11.00;;;7.45;;
19199;SDS011;9732;52.498;5.408;2022-08-19T00:25:09;10.38;;;7.13;;
19199;SDS011;9732;52.498;5.408;2022-08-19T00:27:38;9.75;;;6.95;;
19199;SDS011;9732;52.498;5.408;2022-08-19T00:30:05;8.52;;;6.80;;
19199;SDS011;9732;52.498;5.408;2022-08-19T00:32:34;12.77;;;7.45;;
19199;SDS011;9732;52.498;5.408;2022-08-19T00:35:01;8.38;;;7.10;;
19199;SDS011;9732;52.498;5.408;2022-08-19T00:37:28;11.90;;;7.80;;
19199;SDS011;9732;52.498;5.408;2022-08-19T00:39:55;13.00;;;8.13;;
19199;SDS011;9732;52.498;5.408;2022-08-19T00:42:22;12.15;;;8.27;;
19199;SDS011;9732;52.498;5.408;2022-08-19T00:44:50;13.82;;;8.60;;
19199;SDS011;9732;52.498;5.408;2022-08-19T00:47:17;11.48;;;8.13;;
19199;SDS011;9732;52.498;5.408;2022-08-19T00:49:47;11.10;;;8.88;;
19199;SDS011;9732;52.498;5.408;2022-08-19T00:52:17;14.63;;;8.45;;
19199;SDS011;9732;52.498;5.408;2022-08-19T00:54:49;17.77;;;8.98;;
19199;SDS011;9732;52.498;5.408;2022-08-19T00:57:18;12.70;;;8.73;;
19199;SDS011;9732;52.498;5.408;2022-08-19T00:59:48;14.80;;;8.88;;
19199;SDS011;9732;52.498;5.408;2022-08-19T01:02:20;12.23;;;9.07;;
19199;SDS011;9732;52.498;5.408;2022-08-19T01:04:46;11.88;;;8.85;;
19199;SDS011;9732;52.498;5.408;2022-08-19T01:07:13;14.45;;;8.15;;
19199;SDS011;9732;52.498;5.408;2022-08-19T01:09:40;16.58;;;9.82;;
19199;SDS011;9732;52.498;5.408;2022-08-19T01:12:07;14.52;;;10.23;;
19199;SDS011;9732;52.498;5.408;2022-08-19T01:14:35;18.27;;;9.68;;
19199;SDS011;9732;52.498;5.408;2022-08-19T01:17:06;16.60;;;10.20;;
19199;SDS011;9732;52.498;5.408;2022-08-19T01:19:35;15.80;;;9.68;;
19199;SDS011;9732;52.498;5.408;2022-08-19T01:22:06;18.23;;;10.73;;
19199;SDS011;9732;52.498;5.408;2022-08-19T01:24:39;17.40;;;10.55;;
19199;SDS011;9732;52.498;5.408;2022-08-19T01:27:06;14.23;;;10.68;;
19199;SDS011;9732;52.498;5.408;2022-08-19T01:29:34;17.63;;;10.50;;
19199;SDS011;9732;52.498;5.408;2022-08-19T01:32:04;14.82;;;10.27;;
19199;SDS011;9732;52.498;5.408;2022-08-19T01:34:31;23.70;;;11.60;;
19199;SDS011;9732;52.498;5.408;2022-08-19T01:36:59;16.75;;;10.57;;
19199;SDS011;9732;52.498;5.408;2022-08-19T01:39:27;16.48;;;10.50;;
19199;SDS011;9732;52.498;5.408;2022-08-19T01:41:55;18.38;;;11.35;;
19199;SDS011;9732;52.498;5.408;2022-08-19T01:44:22;18.33;;;11.77;;
19199;SDS011;9732;52.498;5.408;2022-08-19T01:46:50;17.63;;;10.95;;
19199;SDS011;9732;52.498;5.408;2022-08-19T01:49:19;15.25;;;10.77;;
19199;SDS011;9732;52.498;5.408;2022-08-19T01:51:47;17.20;;;10.82;;
19199;SDS011;9732;52.498;5.408;2022-08-19T01:54:15;15.80;;;10.57;;
19199;SDS011;9732;52.498;5.408;2022-08-19T01:56:44;16.02;;;11.13;;
19199;SDS011;9732;52.498;5.408;2022-08-19T01:59:13;21.00;;;10.98;;
19199;SDS011;9732;52.498;5.408;2022-08-19T02:01:43;17.42;;;11.23;;
19199;SDS011;9732;52.498;5.408;2022-08-19T02:04:09;15.63;;;11.07;;
19199;SDS011;9732;52.498;5.408;2022-08-19T02:06:36;17.92;;;10.85;;
19199;SDS011;9732;52.498;5.408;2022-08-19T02:09:04;16.33;;;10.45;;
19199;SDS011;9732;52.498;5.408;2022-08-19T02:11:33;15.35;;;10.68;;
19199;SDS011;9732;52.498;5.408;2022-08-19T02:14:03;17.20;;;10.65;;
19199;SDS011;9732;52.498;5.408;2022-08-19T02:16:33;17.65;;;10.60;;
19199;SDS011;9732;52.498;5.408;2022-08-19T02:19:01;19.40;;;10.90;;
19199;SDS011;9732;52.498;5.408;2022-08-19T02:21:29;18.00;;;11.40;;
19199;SDS011;9732;52.498;5.408;2022-08-19T02:23:56;17.13;;;10.95;;
19199;SDS011;9732;52.498;5.408;2022-08-19T02:26:24;15.15;;;10.23;;
19199;SDS011;9732;52.498;5.408;2022-08-19T02:28:51;14.82;;;10.68;;
19199;SDS011;9732;52.498;5.408;2022-08-19T02:31:20;14.57;;;10.35;;
19199;SDS011;9732;52.498;5.408;2022-08-19T02:33:49;19.40;;;11.60;;
19199;SDS011;9732;52.498;5.408;2022-08-19T02:36:17;17.90;;;10.32;;
19199;SDS011;9732;52.498;5.408;2022-08-19T02:38:45;16.85;;;10.75;;
19199;SDS011;9732;52.498;5.408;2022-08-19T02:41:12;16.10;;;10.73;;
19199;SDS011;9732;52.498;5.408;2022-08-19T02:43:41;16.52;;;11.00;;
19199;SDS011;9732;52.498;5.408;2022-08-19T02:46:12;14.45;;;10.13;;
19199;SDS011;9732;52.498;5.408;2022-08-19T02:48:42;16.88;;;11.10;;
19199;SDS011;9732;52.498;5.408;2022-08-19T02:51:14;15.90;;;11.00;;
19199;SDS011;9732;52.498;5.408;2022-08-19T02:53:42;17.52;;;9.88;;
19199;SDS011;9732;52.498;5.408;2022-08-19T02:56:09;18.13;;;10.63;;
19199;SDS011;9732;52.498;5.408;2022-08-19T02:58:36;16.08;;;11.27;;
19199;SDS011;9732;52.498;5.408;2022-08-19T03:01:02;15.65;;;10.35;;
19199;SDS011;9732;52.498;5.408;2022-08-19T03:03:29;20.50;;;11.43;;
19199;SDS011;9732;52.498;5.408;2022-08-19T03:06:06;18.88;;;11.32;;
19199;SDS011;9732;52.498;5.408;2022-08-19T03:08:36;18.63;;;11.63;;
19199;SDS011;9732;52.498;5.408;2022-08-19T03:11:04;18.13;;;10.95;;
19199;SDS011;9732;52.498;5.408;2022-08-19T03:13:31;17.27;;;10.85;;
19199;SDS011;9732;52.498;5.408;2022-08-19T03:15:58;19.13;;;11.73;;
19199;SDS011;9732;52.498;5.408;2022-08-19T03:18:25;20.80;;;11.68;;
19199;SDS011;9732;52.498;5.408;2022-08-19T03:20:52;17.83;;;12.07;;
19199;SDS011;9732;52.498;5.408;2022-08-19T03:23:19;21.33;;;12.05;;
19199;SDS011;9732;52.498;5.408;2022-08-19T03:25:49;22.15;;;12.25;;
19199;SDS011;9732;52.498;5.408;2022-08-19T03:28:18;21.80;;;12.75;;
19199;SDS011;9732;52.498;5.408;2022-08-19T03:30:54;21.25;;;12.45;;
19199;SDS011;9732;52.498;5.408;2022-08-19T03:33:23;18.42;;;12.38;;
19199;SDS011;9732;52.498;5.408;2022-08-19T03:36:00;16.42;;;12.15;;
19199;SDS011;9732;52.498;5.408;2022-08-19T03:38:30;19.63;;;13.93;;
19199;SDS011;9732;52.498;5.408;2022-08-19T03:40:58;21.02;;;14.00;;
19199;SDS011;9732;52.498;5.408;2022-08-19T03:43:31;28.08;;;13.73;;
19199;SDS011;9732;52.498;5.408;2022-08-19T03:46:02;21.85;;;13.65;;
19199;SDS011;9732;52.498;5.408;2022-08-19T03:48:31;23.00;;;13.88;;
19199;SDS011;9732;52.498;5.408;2022-08-19T03:50:58;22.23;;;14.48;;
19199;SDS011;9732;52.498;5.408;2022-08-19T03:53:25;22.88;;;14.52;;
19199;SDS011;9732;52.498;5.408;2022-08-19T03:55:52;25.15;;;15.05;;
19199;SDS011;9732;52.498;5.408;2022-08-19T03:58:21;25.52;;;14.32;;
19199;SDS011;9732;52.498;5.408;2022-08-19T04:00:47;24.80;;;14.65;;
19199;SDS011;9732;52.498;5.408;2022-08-19T04:03:14;24.35;;;15.13;;
19199;SDS011;9732;52.498;5.408;2022-08-19T04:05:43;22.80;;;15.07;;
19199;SDS011;9732;52.498;5.408;2022-08-19T04:08:10;22.58;;;15.35;;
19199;SDS011;9732;52.498;5.408;2022-08-19T04:10:37;23.35;;;14.73;;
19199;SDS011;9732;52.498;5.408;2022-08-19T04:13:05;30.08;;;14.98;;
19199;SDS011;9732;52.498;5.408;2022-08-19T04:15:38;23.23;;;14.77;;
19199;SDS011;9732;52.498;5.408;2022-08-19T04:18:06;22.75;;;15.13;;
19199;SDS011;9732;52.498;5.408;2022-08-19T04:20:37;21.02;;;14.38;;
19199;SDS011;9732;52.498;5.408;2022-08-19T04:23:05;23.75;;;14.63;;
19199;SDS011;9732;52.498;5.408;2022-08-19T04:25:34;22.52;;;15.77;;
19199;SDS011;9732;52.498;5.408;2022-08-19T04:28:02;23.83;;;14.77;;
19199;SDS011;9732;52.498;5.408;2022-08-19T04:30:29;25.40;;;15.27;;
19199;SDS011;9732;52.498;5.408;2022-08-19T04:32:57;24.40;;;16.20;;
19199;SDS011;9732;52.498;5.408;2022-08-19T04:35:24;23.17;;;15.70;;
19199;SDS011;9732;52.498;5.408;2022-08-19T04:37:51;24.55;;;16.30;;
19199;SDS011;9732;52.498;5.408;2022-08-19T04:40:18;26.10;;;17.30;;
19199;SDS011;9732;52.498;5.408;2022-08-19T04:43:02;23.10;;;16.65;;
19199;SDS011;9732;52.498;5.408;2022-08-19T04:45:28;27.95;;;17.13;;
19199;SDS011;9732;52.498;5.408;2022-08-19T04:47:55;28.23;;;16.77;;
19199;SDS011;9732;52.498;5.408;2022-08-19T04:50:24;30.92;;;18.58;;
19199;SDS011;9732;52.498;5.408;2022-08-19T04:52:51;28.92;;;17.85;;
19199;SDS011;9732;52.498;5.408;2022-08-19T04:55:18;28.75;;;19.05;;
19199;SDS011;9732;52.498;5.408;2022-08-19T04:57:45;28.05;;;19.13;;
19199;SDS011;9732;52.498;5.408;2022-08-19T05:00:12;28.85;;;18.80;;
19199;SDS011;9732;52.498;5.408;2022-08-19T05:02:38;30.33;;;19.42;;
19199;SDS011;9732;52.498;5.408;2022-08-19T05:05:07;30.60;;;19.60;;
19199;SDS011;9732;52.498;5.408;2022-08-19T05:07:34;30.00;;;19.15;;
19199;SDS011;9732;52.498;5.408;2022-08-19T05:10:02;31.27;;;18.65;;
19199;SDS011;9732;52.498;5.408;2022-08-19T05:12:30;28.17;;;18.83;;
19199;SDS011;9732;52.498;5.408;2022-08-19T05:14:57;27.42;;;18.00;;
19199;SDS011;9732;52.498;5.408;2022-08-19T05:17:25;29.00;;;18.15;;
19199;SDS011;9732;52.498;5.408;2022-08-19T05:19:53;29.08;;;17.77;;
19199;SDS011;9732;52.498;5.408;2022-08-19T05:22:38;30.58;;;18.33;;
19199;SDS011;9732;52.498;5.408;2022-08-19T05:25:07;28.95;;;19.35;;
19199;SDS011;9732;52.498;5.408;2022-08-19T05:27:37;26.92;;;17.67;;
19199;SDS011;9732;52.498;5.408;2022-08-19T05:30:04;29.58;;;18.65;;
19199;SDS011;9732;52.498;5.408;2022-08-19T05:32:32;33.00;;;19.00;;
19199;SDS011;9732;52.498;5.408;2022-08-19T05:34:59;34.45;;;19.25;;
19199;SDS011;9732;52.498;5.408;2022-08-19T05:37:25;28.15;;;18.17;;
19199;SDS011;9732;52.498;5.408;2022-08-19T05:39:54;27.08;;;18.55;;
19199;SDS011;9732;52.498;5.408;2022-08-19T05:42:21;31.05;;;19.48;;
19199;SDS011;9732;52.498;5.408;2022-08-19T05:44:48;33.88;;;20.02;;
19199;SDS011;9732;52.498;5.408;2022-08-19T05:47:16;36.38;;;23.08;;
19199;SDS011;9732;52.498;5.408;2022-08-19T05:49:44;31.95;;;19.15;;
19199;SDS011;9732;52.498;5.408;2022-08-19T05:52:12;28.90;;;19.38;;
19199;SDS011;9732;52.498;5.408;2022-08-19T05:54:41;28.90;;;17.83;;
19199;SDS011;9732;52.498;5.408;2022-08-19T05:57:11;31.67;;;19.30;;
19199;SDS011;9732;52.498;5.408;2022-08-19T05:59:38;29.10;;;18.52;;
19199;SDS011;9732;52.498;5.408;2022-08-19T06:02:05;30.23;;;18.80;;
19199;SDS011;9732;52.498;5.408;2022-08-19T06:04:32;30.83;;;19.27;;
19199;SDS011;9732;52.498;5.408;2022-08-19T06:07:00;35.70;;;20.40;;
19199;SDS011;9732;52.498;5.408;2022-08-19T06:09:27;35.80;;;19.83;;
19199;SDS011;9732;52.498;5.408;2022-08-19T06:11:55;34.42;;;20.90;;
19199;SDS011;9732;52.498;5.408;2022-08-19T06:14:26;34.38;;;21.45;;
19199;SDS011;9732;52.498;5.408;2022-08-19T06:16:54;37.38;;;20.15;;
19199;SDS011;9732;52.498;5.408;2022-08-19T06:19:22;36.55;;;21.60;;
19199;SDS011;9732;52.498;5.408;2022-08-19T06:21:50;35.55;;;19.77;;
19199;SDS011;9732;52.498;5.408;2022-08-19T06:24:18;41.40;;;23.70;;
19199;SDS011;9732;52.498;5.408;2022-08-19T06:26:48;41.83;;;21.77;;
19199;SDS011;9732;52.498;5.408;2022-08-19T06:29:16;42.45;;;22.08;;
19199;SDS011;9732;52.498;5.408;2022-08-19T06:31:45;39.78;;;22.52;;
19199;SDS011;9732;52.498;5.408;2022-08-19T06:34:14;44.42;;;23.98;;
19199;SDS011;9732;52.498;5.408;2022-08-19T06:36:42;42.63;;;24.63;;
19199;SDS011;9732;52.498;5.408;2022-08-19T06:39:11;45.40;;;23.52;;
19199;SDS011;9732;52.498;5.408;2022-08-19T06:41:41;43.42;;;24.00;;
19199;SDS011;9732;52.498;5.408;2022-08-19T06:44:09;47.28;;;23.95;;
19199;SDS011;9732;52.498;5.408;2022-08-19T06:46:37;48.67;;;25.17;;
19199;SDS011;9732;52.498;5.408;2022-08-19T06:49:06;48.88;;;24.48;;
19199;SDS011;9732;52.498;5.408;2022-08-19T06:51:34;48.95;;;24.52;;
19199;SDS011;9732;52.498;5.408;2022-08-19T06:54:00;46.58;;;25.48;;
19199;SDS011;9732;52.498;5.408;2022-08-19T06:56:28;51.30;;;25.17;;
19199;SDS011;9732;52.498;5.408;2022-08-19T06:58:56;51.97;;;26.77;;
19199;SDS011;9732;52.498;5.408;2022-08-19T07:01:23;50.45;;;25.70;;
19199;SDS011;9732;52.498;5.408;2022-08-19T07:03:50;77.40;;;38.17;;
19199;SDS011;9732;52.498;5.408;2022-08-19T07:06:18;57.50;;;27.95;;
19199;SDS011;9732;52.498;5.408;2022-08-19T07:08:46;54.72;;;26.30;;
19199;SDS011;9732;52.498;5.408;2022-08-19T07:11:15;60.85;;;28.13;;
19199;SDS011;9732;52.498;5.408;2022-08-19T07:13:44;55.80;;;27.42;;
19199;SDS011;9732;52.498;5.408;2022-08-19T07:16:13;56.63;;;27.25;;
19199;SDS011;9732;52.498;5.408;2022-08-19T07:18:44;55.00;;;25.40;;
19199;SDS011;9732;52.498;5.408;2022-08-19T07:21:12;60.20;;;25.80;;
19199;SDS011;9732;52.498;5.408;2022-08-19T07:23:43;59.30;;;27.05;;
19199;SDS011;9732;52.498;5.408;2022-08-19T07:26:11;58.22;;;26.13;;
19199;SDS011;9732;52.498;5.408;2022-08-19T07:28:39;52.85;;;24.85;;
19199;SDS011;9732;52.498;5.408;2022-08-19T07:31:09;50.10;;;25.23;;
19199;SDS011;9732;52.498;5.408;2022-08-19T07:33:36;55.17;;;25.77;;
19199;SDS011;9732;52.498;5.408;2022-08-19T07:36:03;51.92;;;24.92;;
19199;SDS011;9732;52.498;5.408;2022-08-19T07:38:31;50.45;;;25.80;;
19199;SDS011;9732;52.498;5.408;2022-08-19T07:41:00;62.63;;;28.17;;
19199;SDS011;9732;52.498;5.408;2022-08-19T07:43:27;63.33;;;28.90;;
19199;SDS011;9732;52.498;5.408;2022-08-19T07:45:54;51.28;;;28.33;;
19199;SDS011;9732;52.498;5.408;2022-08-19T07:48:22;57.75;;;30.40;;
19199;SDS011;9732;52.498;5.408;2022-08-19T07:50:50;61.83;;;31.10;;
19199;SDS011;9732;52.498;5.408;2022-08-19T07:53:17;62.47;;;31.20;;
19199;SDS011;9732;52.498;5.408;2022-08-19T07:55:44;68.53;;;32.60;;
19199;SDS011;9732;52.498;5.408;2022-08-19T07:58:13;68.97;;;31.55;;
19199;SDS011;9732;52.498;5.408;2022-08-19T08:00:42;67.72;;;31.52;;
19199;SDS011;9732;52.498;5.408;2022-08-19T08:03:09;62.08;;;30.23;;
19199;SDS011;9732;52.498;5.408;2022-08-19T08:05:37;72.07;;;31.75;;
19199;SDS011;9732;52.498;5.408;2022-08-19T08:08:21;68.65;;;28.70;;
19199;SDS011;9732;52.498;5.408;2022-08-19T08:11:05;72.70;;;31.38;;
19199;SDS011;9732;52.498;5.408;2022-08-19T08:13:33;67.60;;;30.75;;
19199;SDS011;9732;52.498;5.408;2022-08-19T08:16:01;67.70;;;29.80;;
19199;SDS011;9732;52.498;5.408;2022-08-19T08:18:29;71.28;;;29.60;;
19199;SDS011;9732;52.498;5.408;2022-08-19T08:20:56;65.40;;;28.77;;
19199;SDS011;9732;52.498;5.408;2022-08-19T08:23:23;71.82;;;29.20;;
19199;SDS011;9732;52.498;5.408;2022-08-19T08:25:50;66.60;;;27.85;;
19199;SDS011;9732;52.498;5.408;2022-08-19T08:28:19;58.50;;;27.77;;
19199;SDS011;9732;52.498;5.408;2022-08-19T08:30:48;68.43;;;27.77;;
19199;SDS011;9732;52.498;5.408;2022-08-19T08:33:17;64.78;;;28.83;;
19199;SDS011;9732;52.498;5.408;2022-08-19T08:35:45;65.80;;;29.50;;
19199;SDS011;9732;52.498;5.408;2022-08-19T08:38:12;59.05;;;27.35;;
19199;SDS011;9732;52.498;5.408;2022-08-19T08:40:42;57.17;;;26.55;;
19199;SDS011;9732;52.498;5.408;2022-08-19T08:43:14;52.10;;;26.13;;
19199;SDS011;9732;52.498;5.408;2022-08-19T08:45:52;61.78;;;27.35;;
19199;SDS011;9732;52.498;5.408;2022-08-19T08:48:24;61.42;;;27.10;;
19199;SDS011;9732;52.498;5.408;2022-08-19T08:50:57;59.50;;;27.73;;
19199;SDS011;9732;52.498;5.408;2022-08-19T08:53:27;56.63;;;25.50;;
19199;SDS011;9732;52.498;5.408;2022-08-19T08:55:55;60.90;;;26.80;;
19199;SDS011;9732;52.498;5.408;2022-08-19T08:58:24;64.68;;;27.80;;
19199;SDS011;9732;52.498;5.408;2022-08-19T09:00:55;53.83;;;27.08;;
19199;SDS011;9732;52.498;5.408;2022-08-19T09:03:23;64.72;;;27.73;;
19199;SDS011;9732;52.498;5.408;2022-08-19T09:05:55;52.50;;;26.38;;
19199;SDS011;9732;52.498;5.408;2022-08-19T09:08:29;53.67;;;26.60;;
19199;SDS011;9732;52.498;5.408;2022-08-19T09:11:04;57.75;;;26.98;;
19199;SDS011;9732;52.498;5.408;2022-08-19T09:13:37;58.97;;;27.30;;
19199;SDS011;9732;52.498;5.408;2022-08-19T09:16:12;57.88;;;27.30;;
19199;SDS011;9732;52.498;5.408;2022-08-19T09:18:43;54.83;;;26.58;;
19199;SDS011;9732;52.498;5.408;2022-08-19T09:21:12;51.80;;;27.08;;
19199;SDS011;9732;52.498;5.408;2022-08-19T09:23:40;59.13;;;27.98;;
19199;SDS011;9732;52.498;5.408;2022-08-19T09:26:09;59.33;;;27.42;;
19199;SDS011;9732;52.498;5.408;2022-08-19T09:28:38;54.78;;;25.77;;
19199;SDS011;9732;52.498;5.408;2022-08-19T09:31:06;54.30;;;25.42;;
19199;SDS011;9732;52.498;5.408;2022-08-19T09:33:34;55.60;;;26.48;;
19199;SDS011;9732;52.498;5.408;2022-08-19T09:36:01;47.50;;;25.60;;
19199;SDS011;9732;52.498;5.408;2022-08-19T09:38:30;54.72;;;26.83;;
19199;SDS011;9732;52.498;5.408;2022-08-19T09:41:01;53.67;;;26.30;;
19199;SDS011;9732;52.498;5.408;2022-08-19T09:43:29;55.40;;;26.42;;
19199;SDS011;9732;52.498;5.408;2022-08-19T09:45:56;47.65;;;25.50;;
19199;SDS011;9732;52.498;5.408;2022-08-19T09:48:23;49.95;;;26.25;;
19199;SDS011;9732;52.498;5.408;2022-08-19T09:50:51;46.83;;;24.73;;
19199;SDS011;9732;52.498;5.408;2022-08-19T09:53:18;47.13;;;25.08;;
19199;SDS011;9732;52.498;5.408;2022-08-19T09:55:47;49.13;;;25.42;;
19199;SDS011;9732;52.498;5.408;2022-08-19T09:58:14;55.78;;;26.85;;
19199;SDS011;9732;52.498;5.408;2022-08-19T10:00:40;48.13;;;25.75;;
19199;SDS011;9732;52.498;5.408;2022-08-19T10:03:07;52.35;;;25.35;;
19199;SDS011;9732;52.498;5.408;2022-08-19T10:05:34;47.80;;;24.90;;
19199;SDS011;9732;52.498;5.408;2022-08-19T10:08:18;47.42;;;25.52;;
19199;SDS011;9732;52.498;5.408;2022-08-19T10:10:47;44.03;;;25.30;;
19199;SDS011;9732;52.498;5.408;2022-08-19T10:13:16;49.67;;;27.48;;
19199;SDS011;9732;52.498;5.408;2022-08-19T10:15:50;53.35;;;25.27;;
19199;SDS011;9732;52.498;5.408;2022-08-19T10:18:18;46.72;;;25.17;;
19199;SDS011;9732;52.498;5.408;2022-08-19T10:20:47;52.53;;;26.83;;
19199;SDS011;9732;52.498;5.408;2022-08-19T10:23:15;53.15;;;26.23;;
19199;SDS011;9732;52.498;5.408;2022-08-19T10:25:44;55.35;;;29.20;;
19199;SDS011;9732;52.498;5.408;2022-08-19T10:28:10;51.55;;;27.90;;
19199;SDS011;9732;52.498;5.408;2022-08-19T10:30:37;49.20;;;27.80;;
19199;SDS011;9732;52.498;5.408;2022-08-19T10:33:04;54.95;;;27.55;;
19199;SDS011;9732;52.498;5.408;2022-08-19T10:35:32;57.30;;;28.27;;
19199;SDS011;9732;52.498;5.408;2022-08-19T10:37:59;55.83;;;27.45;;
19199;SDS011;9732;52.498;5.408;2022-08-19T10:40:28;48.60;;;27.65;;
19199;SDS011;9732;52.498;5.408;2022-08-19T10:42:55;44.47;;;25.98;;
19199;SDS011;9732;52.498;5.408;2022-08-19T10:45:21;43.05;;;26.63;;
19199;SDS011;9732;52.498;5.408;2022-08-19T10:47:52;38.03;;;25.02;;
19199;SDS011;9732;52.498;5.408;2022-08-19T10:50:19;44.88;;;24.67;;
19199;SDS011;9732;52.498;5.408;2022-08-19T10:53:03;44.42;;;25.15;;
19199;SDS011;9732;52.498;5.408;2022-08-19T10:55:34;42.53;;;23.67;;
19199;SDS011;9732;52.498;5.408;2022-08-19T10:58:19;46.20;;;25.63;;
19199;SDS011;9732;52.498;5.408;2022-08-19T11:00:51;45.28;;;26.65;;
19199;SDS011;9732;52.498;5.408;2022-08-19T11:03:19;42.03;;;25.17;;
19199;SDS011;9732;52.498;5.408;2022-08-19T11:05:46;40.22;;;24.58;;
19199;SDS011;9732;52.498;5.408;2022-08-19T11:08:22;44.63;;;24.95;;
19199;SDS011;9732;52.498;5.408;2022-08-19T11:10:51;42.58;;;24.65;;
19199;SDS011;9732;52.498;5.408;2022-08-19T11:13:24;40.67;;;23.17;;
19199;SDS011;9732;52.498;5.408;2022-08-19T11:15:57;43.03;;;22.42;;
19199;SDS011;9732;52.498;5.408;2022-08-19T11:18:25;40.72;;;23.40;;
19199;SDS011;9732;52.498;5.408;2022-08-19T11:20:52;41.30;;;23.27;;
19199;SDS011;9732;52.498;5.408;2022-08-19T11:23:19;39.45;;;23.05;;
19199;SDS011;9732;52.498;5.408;2022-08-19T11:25:45;38.78;;;22.88;;
19199;SDS011;9732;52.498;5.408;2022-08-19T11:28:14;33.35;;;21.92;;
19199;SDS011;9732;52.498;5.408;2022-08-19T11:30:40;41.78;;;25.23;;
19199;SDS011;9732;52.498;5.408;2022-08-19T11:33:07;42.15;;;25.17;;
19199;SDS011;9732;52.498;5.408;2022-08-19T11:35:38;42.70;;;25.35;;
19199;SDS011;9732;52.498;5.408;2022-08-19T11:38:05;38.47;;;25.05;;
19199;SDS011;9732;52.498;5.408;2022-08-19T11:40:31;40.28;;;24.25;;
19199;SDS011;9732;52.498;5.408;2022-08-19T11:42:59;43.40;;;24.95;;
19199;SDS011;9732;52.498;5.408;2022-08-19T11:45:27;42.17;;;25.15;;
19199;SDS011;9732;52.498;5.408;2022-08-19T11:47:54;46.78;;;25.77;;
19199;SDS011;9732;52.498;5.408;2022-08-19T11:50:22;44.97;;;26.00;;
19199;SDS011;9732;52.498;5.408;2022-08-19T11:52:49;34.65;;;23.45;;
19199;SDS011;9732;52.498;5.408;2022-08-19T11:55:16;45.95;;;24.88;;
19199;SDS011;9732;52.498;5.408;2022-08-19T11:57:44;38.60;;;21.77;;
19199;SDS011;9732;52.498;5.408;2022-08-19T12:00:12;40.17;;;20.33;;
19199;SDS011;9732;52.498;5.408;2022-08-19T12:02:41;30.17;;;19.00;;
19199;SDS011;9732;52.498;5.408;2022-08-19T12:05:08;27.83;;;17.90;;
19199;SDS011;9732;52.498;5.408;2022-08-19T12:07:35;27.15;;;17.02;;
19199;SDS011;9732;52.498;5.408;2022-08-19T12:10:02;25.55;;;15.95;;
19199;SDS011;9732;52.498;5.408;2022-08-19T12:12:29;18.17;;;11.25;;
19199;SDS011;9732;52.498;5.408;2022-08-19T12:14:56;15.43;;;9.50;;
19199;SDS011;9732;52.498;5.408;2022-08-19T12:17:23;18.05;;;9.02;;
19199;SDS011;9732;52.498;5.408;2022-08-19T12:19:52;17.92;;;8.75;;
19199;SDS011;9732;52.498;5.408;2022-08-19T12:22:18;19.30;;;9.40;;
19199;SDS011;9732;52.498;5.408;2022-08-19T12:24:46;16.60;;;8.57;;
19199;SDS011;9732;52.498;5.408;2022-08-19T12:27:15;6.38;;;4.85;;
19199;SDS011;9732;52.498;5.408;2022-08-19T12:29:41;9.38;;;4.40;;
19199;SDS011;9732;52.498;5.408;2022-08-19T12:32:08;11.85;;;5.20;;
19199;SDS011;9732;52.498;5.408;2022-08-19T12:34:35;12.75;;;6.20;;
19199;SDS011;9732;52.498;5.408;2022-08-19T12:37:04;14.63;;;7.47;;
19199;SDS011;9732;52.498;5.408;2022-08-19T12:39:33;11.95;;;6.22;;
19199;SDS011;9732;52.498;5.408;2022-08-19T12:42:01;11.00;;;6.13;;
19199;SDS011;9732;52.498;5.408;2022-08-19T12:44:29;12.48;;;6.20;;
19199;SDS011;9732;52.498;5.408;2022-08-19T12:46:57;16.70;;;6.40;;
19199;SDS011;9732;52.498;5.408;2022-08-19T12:49:24;10.18;;;5.88;;
19199;SDS011;9732;52.498;5.408;2022-08-19T12:51:53;11.27;;;5.55;;
19199;SDS011;9732;52.498;5.408;2022-08-19T12:54:21;9.95;;;5.60;;
19199;SDS011;9732;52.498;5.408;2022-08-19T12:56:48;9.25;;;5.68;;
19199;SDS011;9732;52.498;5.408;2022-08-19T12:59:15;9.00;;;5.00;;
19199;SDS011;9732;52.498;5.408;2022-08-19T13:01:43;10.52;;;5.20;;
19199;SDS011;9732;52.498;5.408;2022-08-19T13:04:10;6.35;;;4.70;;
19199;SDS011;9732;52.498;5.408;2022-08-19T13:06:37;10.32;;;4.65;;
19199;SDS011;9732;52.498;5.408;2022-08-19T13:09:04;9.85;;;5.65;;
19199;SDS011;9732;52.498;5.408;2022-08-19T13:11:33;11.02;;;5.05;;
19199;SDS011;9732;52.498;5.408;2022-08-19T13:13:59;15.05;;;5.00;;
19199;SDS011;9732;52.498;5.408;2022-08-19T13:16:27;11.85;;;5.60;;
19199;SDS011;9732;52.498;5.408;2022-08-19T13:18:54;8.65;;;5.45;;
19199;SDS011;9732;52.498;5.408;2022-08-19T13:21:23;11.23;;;5.65;;
19199;SDS011;9732;52.498;5.408;2022-08-19T13:23:52;8.45;;;5.50;;
19199;SDS011;9732;52.498;5.408;2022-08-19T13:26:19;9.35;;;4.93;;
19199;SDS011;9732;52.498;5.408;2022-08-19T13:28:48;8.07;;;4.65;;
19199;SDS011;9732;52.498;5.408;2022-08-19T13:31:34;9.63;;;5.30;;
19199;SDS011;9732;52.498;5.408;2022-08-19T13:34:26;10.57;;;5.50;;
19199;SDS011;9732;52.498;5.408;2022-08-19T13:36:55;7.13;;;4.30;;
19199;SDS011;9732;52.498;5.408;2022-08-19T13:39:22;9.95;;;4.75;;
19199;SDS011;9732;52.498;5.408;2022-08-19T13:41:49;10.38;;;4.68;;
19199;SDS011;9732;52.498;5.408;2022-08-19T13:44:18;10.20;;;5.10;;
19199;SDS011;9732;52.498;5.408;2022-08-19T13:46:45;8.20;;;5.07;;
19199;SDS011;9732;52.498;5.408;2022-08-19T13:49:13;7.30;;;4.45;;
19199;SDS011;9732;52.498;5.408;2022-08-19T13:51:41;8.25;;;4.40;;
19199;SDS011;9732;52.498;5.408;2022-08-19T13:54:08;8.45;;;4.45;;
19199;SDS011;9732;52.498;5.408;2022-08-19T13:56:39;11.00;;;4.43;;
19199;SDS011;9732;52.498;5.408;2022-08-19T13:59:06;10.73;;;4.95;;
19199;SDS011;9732;52.498;5.408;2022-08-19T14:01:34;10.48;;;4.20;;
19199;SDS011;9732;52.498;5.408;2022-08-19T14:04:02;10.48;;;4.18;;
19199;SDS011;9732;52.498;5.408;2022-08-19T14:06:30;11.93;;;4.32;;
19199;SDS011;9732;52.498;5.408;2022-08-19T14:08:56;8.15;;;4.35;;
19199;SDS011;9732;52.498;5.408;2022-08-19T14:11:23;5.55;;;3.85;;
19199;SDS011;9732;52.498;5.408;2022-08-19T14:13:51;10.85;;;3.47;;
19199;SDS011;9732;52.498;5.408;2022-08-19T14:16:18;13.00;;;4.10;;
19199;SDS011;9732;52.498;5.408;2022-08-19T14:18:46;8.23;;;3.50;;
19199;SDS011;9732;52.498;5.408;2022-08-19T14:21:16;6.53;;;3.42;;
19199;SDS011;9732;52.498;5.408;2022-08-19T14:23:46;10.13;;;3.63;;
19199;SDS011;9732;52.498;5.408;2022-08-19T14:26:13;3.70;;;2.65;;
19199;SDS011;9732;52.498;5.408;2022-08-19T14:28:42;4.78;;;2.22;;
19199;SDS011;9732;52.498;5.408;2022-08-19T14:31:09;4.03;;;1.88;;
19199;SDS011;9732;52.498;5.408;2022-08-19T14:33:37;4.93;;;1.75;;
19199;SDS011;9732;52.498;5.408;2022-08-19T14:36:06;4.18;;;1.95;;
19199;SDS011;9732;52.498;5.408;2022-08-19T14:38:33;2.50;;;1.88;;
19199;SDS011;9732;52.498;5.408;2022-08-19T14:41:08;6.00;;;1.60;;
19199;SDS011;9732;52.498;5.408;2022-08-19T14:43:36;3.72;;;1.60;;
19199;SDS011;9732;52.498;5.408;2022-08-19T14:46:03;2.72;;;1.60;;